PST,Max TemperatureF,Mean TemperatureF,Min TemperatureF,Max Dew PointF,MeanDew PointF,Min DewpointF,Max Humidity, Mean Humidity, Min Humidity, Max Sea Level PressureIn, Mean Sea Level PressureIn, Min Sea Level PressureIn, Max VisibilityMiles, Mean VisibilityMiles, Min VisibilityMiles, Max Wind SpeedMPH, Mean Wind SpeedMPH, Max Gust SpeedMPH,PrecipitationIn, CloudCover, Events, WindDirDegrees
2013-11-1,85,69,53,38,27,22,35,23,10,30.15,30.07,30.00,10,10,10,10,5,13,0.00,0,,346
2013-11-2,84,70,55,36,28,24,35,24,12,30.04,29.92,29.81,10,10,10,12,5,13,0.00,0,,345
2013-11-3,83,70,56,45,34,23,42,27,11,29.83,29.78,29.71,10,10,10,13,4,17,0.00,0,,306
2013-11-4,75,65,54,46,42,33,72,50,27,29.91,29.78,29.70,10,10,8,24,7,31,0.00,0,,310
2013-11-5,75,68,61,38,11,-1,42,24,5,30.21,30.12,29.94,10,10,10,20,8,25,0.00,0,,336
2013-11-6,80,66,51,27,7,-10,19,11,3,30.31,30.23,30.18,10,10,10,10,4,12,0.00,0,,279
2013-11-7,83,68,53,31,14,7,24,15,5,30.19,30.11,30.04,10,10,10,9,5,12,0.00,1,,349
2013-11-8,84,69,53,30,16,8,22,14,6,30.05,29.99,29.92,10,10,10,10,5,13,0.00,0,,358
2013-11-9,81,66,50,31,20,14,41,25,8,30.08,30.03,29.98,10,10,10,9,4,12,0.00,0,,335
2013-11-10,84,69,54,34,21,15,35,22,8,30.12,30.07,30.03,10,10,10,10,3,13,0.00,1,,329
2013-11-11,90,74,57,36,27,20,26,17,8,30.09,30.05,30.00,10,10,10,10,4,12,0.00,0,,330
2013-11-12,88,75,62,40,29,22,28,19,9,30.15,30.10,30.06,10,10,10,9,4,12,0.00,1,,310
2013-11-13,90,76,61,39,27,22,25,17,9,30.08,30.01,29.94,10,10,10,10,5,13,0.00,0,,338
2013-11-14,88,73,57,37,25,17,37,23,9,29.98,29.88,29.72,10,10,10,12,6,14,0.00,0,,341
2013-11-15,77,67,57,44,39,27,44,33,22,29.69,29.64,29.58,10,10,10,22,5,26,0.00,0,,311
2013-11-16,72,62,52,44,42,41,71,53,35,29.88,29.76,29.67,10,10,10,24,4,35,0.00,1,,298
2013-11-17,73,62,50,44,42,40,74,53,31,30.09,30.01,29.89,10,10,10,9,2,12,0.00,0,,51
2013-11-18,76,65,53,48,43,39,64,47,29,30.13,30.05,30.00,10,10,10,9,5,13,0.00,0,,326
2013-11-19,72,65,57,47,45,44,67,53,38,29.99,29.92,29.88,10,10,10,18,7,24,0.00,1,,297
2013-11-20,73,65,56,48,46,45,72,54,35,29.88,29.84,29.80,10,10,9,25,7,30,0.00,1,,290
2013-11-21,67,61,55,52,49,45,77,68,58,29.89,29.85,29.82,10,10,10,8,1,12,T,5,,303
2013-11-22,62,58,54,48,41,36,77,58,39,30.02,29.94,29.86,10,10,9,18,8,22,0.06,7,Rain,337
2013-11-23,65,59,52,43,40,37,71,54,37,30.12,30.06,30.01,10,10,10,12,3,16,T,6,Rain,327
2013-11-24,67,58,48,40,37,34,71,50,29,30.22,30.17,30.12,10,10,10,9,4,10,0.00,2,,274
2013-11-25,76,62,48,43,37,28,66,42,18,30.25,30.21,30.15,10,10,10,10,5,13,0.00,0,,354
2013-11-26,72,60,47,42,36,31,66,47,27,30.28,30.21,30.15,10,10,10,12,4,13,0.00,0,,16
2013-11-27,73,63,53,40,34,29,55,38,20,30.13,30.04,29.96,10,10,10,12,4,15,0.00,2,,354
2013-11-28,71,60,49,40,33,29,54,37,20,30.09,30.02,29.97,10,10,10,9,4,12,0.00,1,,329
2013-11-29,70,61,51,50,39,32,54,40,26,30.19,30.15,30.09,10,10,10,13,5,16,T,4,Rain,300
2013-11-30,78,64,50,43,38,31,71,45,19,30.21,30.16,30.08,10,10,10,9,4,20,0.00,1,,306